Time;durP1;ratioP1;P1;durP2;ratioP2;P2;SDS_P1;SDS_P2;PMS_P1;PMS_P2;Temp;Humidity;BMP_temperature;BMP_pressure;BME280_temperature;BME280_humidity;BME280_pressure;Samples;Min_cycle;Max_cycle;Signal;HPM_P1;HPM_P2
2024/01/27 00:02:04;;;;;;;1.23;0.50;;;;;;;;;;4995275;28;20030;-92
2024/01/27 00:04:29;;;;;;;1.20;0.50;;;;;;;;;;5013282;28;20119;-91
2024/01/27 00:06:55;;;;;;;0.65;0.57;;;;;;;;;;4996442;28;20066;-93
2024/01/27 00:09:21;;;;;;;1.00;0.50;;;;;;;;;;4996842;28;20030;-92
2024/01/27 00:11:46;;;;;;;1.98;0.85;;;;;;;;;;4997078;28;20037;-93
2024/01/27 00:14:12;;;;;;;1.83;0.80;;;;;;;;;;4996507;28;20037;-92
2024/01/27 00:16:37;;;;;;;2.05;0.60;;;;;;;;;;4997630;28;20030;-92
2024/01/27 00:19:03;;;;;;;2.17;0.95;;;;;;;;;;4996821;28;20022;-93
2024/01/27 00:21:28;;;;;;;2.05;0.95;;;;;;;;;;4980626;28;20461;-92
2024/01/27 00:24:00;;;;;;;3.97;0.82;;;;;;;;;;4996895;28;20366;-91
2024/01/27 00:26:26;;;;;;;1.77;0.82;;;;;;;;;;4997007;28;20077;-91
2024/01/27 00:28:51;;;;;;;1.63;0.77;;;;;;;;;;4996767;28;20046;-92
2024/01/27 00:31:19;;;;;;;1.75;0.98;;;;;;;;;;4996837;28;20057;-91
2024/01/27 00:33:45;;;;;;;1.48;0.70;;;;;;;;;;5012908;28;20026;-92
2024/01/27 00:36:11;;;;;;;2.13;0.85;;;;;;;;;;4996356;28;20078;-91
2024/01/27 00:38:37;;;;;;;2.25;0.82;;;;;;;;;;5013073;28;20037;-92
2024/01/27 00:41:03;;;;;;;1.73;0.90;;;;;;;;;;4996724;28;20033;-91
2024/01/27 00:43:28;;;;;;;1.50;0.90;;;;;;;;;;5012146;28;20042;-92
2024/01/27 00:45:54;;;;;;;1.73;0.70;;;;;;;;;;4995663;28;20440;-93
2024/01/27 00:48:20;;;;;;;2.30;0.95;;;;;;;;;;4996212;28;20121;-92
2024/01/27 00:50:45;;;;;;;1.92;0.82;;;;;;;;;;5012674;28;20026;-92
2024/01/27 00:53:11;;;;;;;1.48;0.75;;;;;;;;;;4996422;28;20527;-93
2024/01/27 00:55:37;;;;;;;2.10;0.82;;;;;;;;;;5011516;28;20038;-92
2024/01/27 00:58:03;;;;;;;1.17;0.80;;;;;;;;;;4996403;28;20026;-92
2024/01/27 01:00:28;;;;;;;0.75;0.52;;;;;;;;;;4996274;28;20029;-91
2024/01/27 01:02:53;;;;;;;1.95;0.90;;;;;;;;;;4996174;28;20034;-93
2024/01/27 01:05:19;;;;;;;2.40;0.80;;;;;;;;;;4996087;28;20042;-91
2024/01/27 01:07:44;;;;;;;1.33;0.90;;;;;;;;;;4996246;28;20022;-91
2024/01/27 01:10:10;;;;;;;1.60;0.77;;;;;;;;;;4995916;28;20030;-92
2024/01/27 01:12:36;;;;;;;2.17;0.75;;;;;;;;;;5011835;28;20030;-92
2024/01/27 01:15:02;;;;;;;3.38;1.13;;;;;;;;;;4995913;28;20038;-92
2024/01/27 01:17:27;;;;;;;1.58;0.88;;;;;;;;;;4996123;28;20026;-91
2024/01/27 01:19:53;;;;;;;2.33;0.73;;;;;;;;;;4995739;28;20030;-92
2024/01/27 01:22:19;;;;;;;2.80;0.82;;;;;;;;;;4995901;28;20109;-92
2024/01/27 01:24:44;;;;;;;1.38;0.50;;;;;;;;;;5011616;28;20034;-92
2024/01/27 01:27:09;;;;;;;1.95;0.80;;;;;;;;;;4996024;28;20385;-91
2024/01/27 01:29:35;;;;;;;2.03;0.73;;;;;;;;;;4995729;28;20066;-92
2024/01/27 01:32:02;;;;;;;2.95;0.88;;;;;;;;;;5011811;28;20158;-91
2024/01/27 01:34:28;;;;;;;1.17;0.52;;;;;;;;;;4995611;28;20113;-93
2024/01/27 01:36:54;;;;;;;1.70;0.70;;;;;;;;;;5011687;28;20058;-92
2024/01/27 01:39:19;;;;;;;1.90;0.73;;;;;;;;;;4995033;28;20393;-91
2024/01/27 01:41:45;;;;;;;2.25;1.08;;;;;;;;;;4994518;28;20027;-93
2024/01/27 01:44:10;;;;;;;0.75;0.60;;;;;;;;;;5011211;28;20117;-93
2024/01/27 01:46:36;;;;;;;2.92;1.05;;;;;;;;;;4995265;28;20030;-92
2024/01/27 01:49:01;;;;;;;1.80;0.90;;;;;;;;;;4995459;28;20077;-93
2024/01/27 01:51:27;;;;;;;2.05;0.70;;;;;;;;;;4995022;28;20076;-93
2024/01/27 01:53:56;;;;;;;1.50;0.70;;;;;;;;;;4995143;28;20448;-91
2024/01/27 01:56:23;;;;;;;1.05;0.70;;;;;;;;;;5011313;28;20026;-93
2024/01/27 01:58:48;;;;;;;3.03;0.70;;;;;;;;;;4994987;28;20393;-94
2024/01/27 02:01:16;;;;;;;1.10;0.68;;;;;;;;;;5011438;28;20026;-92
2024/01/27 02:03:51;;;;;;;5.25;1.20;;;;;;;;;;4994641;28;20026;-92
2024/01/27 02:06:16;;;;;;;3.15;0.90;;;;;;;;;;4994331;28;20060;-93
2024/01/27 02:08:42;;;;;;;2.50;0.68;;;;;;;;;;4994706;28;20065;-93
2024/01/27 02:11:07;;;;;;;1.50;0.90;;;;;;;;;;4995221;28;20045;-93
2024/01/27 02:13:33;;;;;;;2.75;0.90;;;;;;;;;;4994810;28;20081;-92
2024/01/27 02:15:59;;;;;;;1.70;0.52;;;;;;;;;;5010858;28;20113;-92
2024/01/27 02:18:24;;;;;;;1.75;0.90;;;;;;;;;;4994705;28;20058;-93
2024/01/27 02:20:51;;;;;;;2.53;0.77;;;;;;;;;;4994848;28;20039;-92
2024/01/27 02:23:16;;;;;;;3.50;1.00;;;;;;;;;;4994490;28;20026;-91
2024/01/27 02:25:42;;;;;;;1.45;0.68;;;;;;;;;;4993694;28;20035;-93
2024/01/27 02:28:07;;;;;;;1.73;0.75;;;;;;;;;;4994488;28;20022;-92
2024/01/27 02:30:33;;;;;;;2.28;0.90;;;;;;;;;;4994138;28;20038;-92
2024/01/27 02:32:58;;;;;;;2.15;0.93;;;;;;;;;;4994450;28;20378;-94
2024/01/27 02:35:25;;;;;;;2.30;0.88;;;;;;;;;;4994236;28;20460;-92
2024/01/27 02:37:50;;;;;;;1.25;0.80;;;;;;;;;;5011151;28;20026;-93
2024/01/27 02:40:16;;;;;;;1.33;0.80;;;;;;;;;;4994555;28;20113;-92
2024/01/27 02:42:42;;;;;;;2.95;1.13;;;;;;;;;;4994313;28;20034;-92
2024/01/27 02:45:08;;;;;;;3.63;1.17;;;;;;;;;;5010705;28;20030;-92
2024/01/27 02:47:33;;;;;;;1.85;0.80;;;;;;;;;;5010842;28;20069;-92
2024/01/27 02:49:58;;;;;;;2.60;1.13;;;;;;;;;;4994353;28;20497;-93
2024/01/27 02:52:24;;;;;;;2.00;0.70;;;;;;;;;;4994503;28;20026;-92
2024/01/27 02:54:49;;;;;;;3.58;1.13;;;;;;;;;;4994036;28;20035;-92
2024/01/27 02:57:17;;;;;;;1.50;0.70;;;;;;;;;;5010856;28;20022;-92
2024/01/27 02:59:44;;;;;;;1.58;0.77;;;;;;;;;;4994351;28;20026;-92
2024/01/27 03:02:11;;;;;;;2.92;1.05;;;;;;;;;;5010721;28;20033;-93
2024/01/27 03:04:36;;;;;;;1.10;0.70;;;;;;;;;;4993664;28;20497;-92
2024/01/27 03:07:02;;;;;;;4.05;1.10;;;;;;;;;;4993887;28;20034;-88
2024/01/27 03:09:27;;;;;;;2.72;1.00;;;;;;;;;;4993829;28;20038;-91
2024/01/27 03:11:53;;;;;;;3.42;1.08;;;;;;;;;;4993709;28;20026;-92
2024/01/27 03:14:18;;;;;;;4.15;0.80;;;;;;;;;;5010271;28;20134;-92
2024/01/27 03:16:44;;;;;;;1.48;0.95;;;;;;;;;;4993838;28;20097;-92
2024/01/27 03:19:10;;;;;;;1.98;0.98;;;;;;;;;;4993959;28;20034;-92
2024/01/27 03:21:36;;;;;;;4.45;1.10;;;;;;;;;;4993949;28;20022;-92
2024/01/27 03:24:01;;;;;;;2.80;0.65;;;;;;;;;;4993993;28;20081;-92
2024/01/27 03:26:27;;;;;;;2.95;1.00;;;;;;;;;;4993537;28;20031;-92
2024/01/27 03:28:52;;;;;;;2.65;0.85;;;;;;;;;;4994071;28;20035;-92
2024/01/27 03:31:19;;;;;;;2.75;1.13;;;;;;;;;;4993587;28;20058;-92
2024/01/27 03:33:45;;;;;;;1.58;0.73;;;;;;;;;;4993323;28;20034;-93
2024/01/27 03:36:11;;;;;;;2.30;1.02;;;;;;;;;;4995281;28;20033;-90
2024/01/27 03:38:37;;;;;;;3.15;1.02;;;;;;;;;;4997427;28;20014;-91
2024/01/27 03:41:03;;;;;;;2.25;1.05;;;;;;;;;;4997439;28;20030;-90
2024/01/27 03:43:28;;;;;;;2.72;0.82;;;;;;;;;;5013349;28;20038;-90
2024/01/27 03:45:54;;;;;;;1.35;0.60;;;;;;;;;;4997474;28;20034;-91
2024/01/27 03:48:19;;;;;;;2.45;0.80;;;;;;;;;;4997003;28;20037;-92
2024/01/27 03:50:44;;;;;;;3.03;0.75;;;;;;;;;;4997028;28;20026;-89
2024/01/27 03:53:10;;;;;;;5.60;1.10;;;;;;;;;;4997284;28;20501;-91
2024/01/27 03:55:36;;;;;;;3.55;1.00;;;;;;;;;;4998467;28;20040;-90
2024/01/27 03:58:01;;;;;;;2.22;0.90;;;;;;;;;;4997321;28;20469;-90
2024/01/27 04:00:29;;;;;;;2.25;0.80;;;;;;;;;;4996980;28;20053;-90
2024/01/27 04:02:55;;;;;;;3.35;0.55;;;;;;;;;;4997381;28;20426;-90
2024/01/27 04:05:20;;;;;;;1.45;0.60;;;;;;;;;;4996593;28;20027;-90
2024/01/27 04:07:46;;;;;;;2.28;1.15;;;;;;;;;;4998526;28;20030;-90
2024/01/27 04:10:11;;;;;;;4.90;1.13;;;;;;;;;;4997227;28;20452;-91
2024/01/27 04:12:36;;;;;;;2.13;0.75;;;;;;;;;;4997420;28;20034;-91
2024/01/27 04:15:02;;;;;;;0.75;0.60;;;;;;;;;;4996906;28;20029;-89
2024/01/27 04:17:27;;;;;;;3.70;0.98;;;;;;;;;;4996775;28;20053;-92
2024/01/27 04:19:53;;;;;;;2.35;1.00;;;;;;;;;;4996733;28;20030;-92
2024/01/27 04:22:18;;;;;;;3.53;1.02;;;;;;;;;;4996735;28;20100;-92
2024/01/27 04:24:43;;;;;;;1.52;0.82;;;;;;;;;;5012907;28;20025;-92
2024/01/27 04:27:09;;;;;;;2.65;1.10;;;;;;;;;;4997015;28;20034;-91
2024/01/27 04:29:36;;;;;;;3.83;1.08;;;;;;;;;;4997028;28;20034;-92
2024/01/27 04:32:01;;;;;;;2.78;0.90;;;;;;;;;;5012919;28;20073;-92
2024/01/27 04:34:27;;;;;;;2.05;0.82;;;;;;;;;;4996830;28;20481;-93
2024/01/27 04:36:53;;;;;;;3.47;1.33;;;;;;;;;;4996912;28;20054;-91
2024/01/27 04:39:18;;;;;;;2.15;1.10;;;;;;;;;;4996778;28;20101;-92
2024/01/27 04:41:43;;;;;;;3.60;1.17;;;;;;;;;;4996363;28;20029;-91
2024/01/27 04:44:09;;;;;;;3.65;1.17;;;;;;;;;;4996607;28;20044;-91
2024/01/27 04:46:34;;;;;;;1.85;0.82;;;;;;;;;;4996349;28;20038;-92
2024/01/27 04:49:01;;;;;;;2.78;0.77;;;;;;;;;;4995834;28;20034;-92
2024/01/27 04:51:27;;;;;;;3.15;1.08;;;;;;;;;;4996241;28;20393;-92
2024/01/27 04:53:53;;;;;;;4.57;1.20;;;;;;;;;;4996163;28;20030;-92
2024/01/27 04:56:18;;;;;;;3.97;1.20;;;;;;;;;;4996270;28;20022;-93
2024/01/27 04:58:44;;;;;;;1.77;0.90;;;;;;;;;;4980047;28;20125;-91
2024/01/27 05:01:10;;;;;;;2.17;1.20;;;;;;;;;;4996259;28;20037;-91
2024/01/27 05:03:36;;;;;;;2.80;1.17;;;;;;;;;;4996459;28;20125;-91
2024/01/27 05:06:02;;;;;;;2.05;1.10;;;;;;;;;;4995659;28;20121;-91
2024/01/27 05:08:27;;;;;;;3.10;0.98;;;;;;;;;;4995926;28;20156;-91
2024/01/27 05:10:52;;;;;;;1.67;0.88;;;;;;;;;;4995738;28;20497;-93
2024/01/27 05:13:18;;;;;;;1.38;0.98;;;;;;;;;;4995913;28;20041;-93
2024/01/27 05:15:43;;;;;;;2.25;1.05;;;;;;;;;;4995816;28;20024;-91
2024/01/27 05:18:10;;;;;;;1.52;1.00;;;;;;;;;;4996080;28;20038;-90
2024/01/27 05:20:36;;;;;;;2.35;1.00;;;;;;;;;;5012263;28;20485;-91
2024/01/27 05:23:01;;;;;;;3.60;1.10;;;;;;;;;;5011774;28;20109;-91
2024/01/27 05:25:28;;;;;;;5.03;1.50;;;;;;;;;;4995911;28;20026;-91
2024/01/27 05:27:53;;;;;;;5.05;1.23;;;;;;;;;;4995789;28;20026;-91
2024/01/27 05:30:19;;;;;;;4.40;1.33;;;;;;;;;;4995436;28;20108;-93
2024/01/27 05:32:45;;;;;;;2.78;1.20;;;;;;;;;;4995928;28;20049;-92
2024/01/27 05:35:10;;;;;;;3.67;1.20;;;;;;;;;;4995515;28;20061;-91
2024/01/27 05:37:36;;;;;;;3.20;1.27;;;;;;;;;;4995677;28;20033;-92
2024/01/27 05:40:02;;;;;;;4.45;1.35;;;;;;;;;;4995408;28;20037;-92
2024/01/27 05:42:27;;;;;;;3.97;1.08;;;;;;;;;;4995416;28;20063;-92
2024/01/27 05:44:53;;;;;;;4.60;0.95;;;;;;;;;;4995410;28;20073;-91
2024/01/27 05:47:18;;;;;;;1.92;1.13;;;;;;;;;;4995033;28;20046;-91
2024/01/27 05:49:44;;;;;;;3.95;1.08;;;;;;;;;;4979157;28;20038;-91
2024/01/27 05:52:09;;;;;;;2.35;1.25;;;;;;;;;;4995244;28;20027;-90
2024/01/27 05:54:35;;;;;;;3.45;1.10;;;;;;;;;;4995130;28;20041;-92
2024/01/27 05:57:03;;;;;;;3.97;1.60;;;;;;;;;;5011746;28;20085;-92
2024/01/27 05:59:28;;;;;;;5.68;1.67;;;;;;;;;;5011613;28;20026;-93
2024/01/27 06:01:54;;;;;;;5.00;1.48;;;;;;;;;;5011253;28;20018;-93
2024/01/27 06:04:20;;;;;;;3.75;1.20;;;;;;;;;;5011423;28;20065;-92
2024/01/27 06:06:46;;;;;;;2.20;1.05;;;;;;;;;;4994808;28;20031;-93
2024/01/27 06:09:11;;;;;;;3.25;1.38;;;;;;;;;;4994823;28;20096;-92
2024/01/27 06:11:37;;;;;;;3.17;1.30;;;;;;;;;;4994523;28;20515;-91
2024/01/27 06:14:04;;;;;;;4.53;1.30;;;;;;;;;;5011161;28;20125;-92
2024/01/27 06:16:29;;;;;;;4.13;1.10;;;;;;;;;;4994576;28;20116;-91
2024/01/27 06:18:54;;;;;;;3.85;1.10;;;;;;;;;;4994245;28;20117;-91
2024/01/27 06:21:20;;;;;;;3.67;1.33;;;;;;;;;;4994533;28;20034;-94
2024/01/27 06:23:46;;;;;;;3.00;1.17;;;;;;;;;;4994539;28;20041;-91
2024/01/27 06:26:12;;;;;;;5.40;1.60;;;;;;;;;;4994480;28;20061;-91
2024/01/27 06:28:38;;;;;;;6.28;1.85;;;;;;;;;;5010734;28;20503;-91
2024/01/27 06:31:04;;;;;;;2.90;1.10;;;;;;;;;;4994494;28;20043;-92
2024/01/27 06:33:29;;;;;;;5.68;1.27;;;;;;;;;;4994606;28;20061;-93
2024/01/27 06:35:54;;;;;;;4.15;1.48;;;;;;;;;;4994654;28;20581;-92
2024/01/27 06:38:20;;;;;;;2.88;1.25;;;;;;;;;;4994413;28;20045;-92
2024/01/27 06:40:45;;;;;;;2.88;1.10;;;;;;;;;;5010390;28;20034;-90
2024/01/27 06:43:12;;;;;;;3.65;1.35;;;;;;;;;;4994114;28;20667;-92
2024/01/27 06:45:37;;;;;;;1.58;1.10;;;;;;;;;;4994430;28;20030;-91
2024/01/27 06:48:03;;;;;;;4.43;1.17;;;;;;;;;;4994290;28;20544;-92
2024/01/27 06:50:30;;;;;;;5.93;1.23;;;;;;;;;;4994218;28;20122;-92
2024/01/27 06:52:56;;;;;;;3.33;1.35;;;;;;;;;;4994407;28;20105;-93
2024/01/27 06:55:21;;;;;;;3.03;1.23;;;;;;;;;;4994354;28;20069;-92
2024/01/27 06:57:46;;;;;;;4.95;1.33;;;;;;;;;;4993998;28;20157;-93
2024/01/27 07:00:14;;;;;;;6.20;1.42;;;;;;;;;;4994256;28;20030;-91
2024/01/27 07:02:40;;;;;;;5.03;1.20;;;;;;;;;;4994448;28;20031;-92
2024/01/27 07:05:05;;;;;;;1.77;1.00;;;;;;;;;;5010052;28;20145;-93
2024/01/27 07:07:31;;;;;;;2.63;1.52;;;;;;;;;;4993874;28;20065;-91
2024/01/27 07:09:57;;;;;;;4.47;1.30;;;;;;;;;;5009454;28;20045;-92
2024/01/27 07:12:22;;;;;;;3.38;1.23;;;;;;;;;;4994046;28;20390;-92
2024/01/27 07:14:47;;;;;;;3.00;0.85;;;;;;;;;;4993786;28;20065;-92
2024/01/27 07:17:13;;;;;;;3.03;1.27;;;;;;;;;;4993947;28;20037;-92
2024/01/27 07:19:39;;;;;;;3.95;1.40;;;;;;;;;;4993834;28;20133;-93
2024/01/27 07:22:05;;;;;;;5.15;1.55;;;;;;;;;;4994714;28;20484;-91
2024/01/27 07:24:31;;;;;;;2.38;1.10;;;;;;;;;;5010027;28;20030;-93
2024/01/27 07:26:58;;;;;;;3.65;1.25;;;;;;;;;;4993991;28;20042;-93
2024/01/27 07:29:26;;;;;;;3.58;1.40;;;;;;;;;;4993826;28;20034;-93
2024/01/27 07:32:02;;;;;;;4.75;1.83;;;;;;;;;;4993819;28;20034;-91
2024/01/27 07:34:28;;;;;;;3.22;1.30;;;;;;;;;;4993694;28;20030;-90
2024/01/27 07:36:53;;;;;;;6.93;1.92;;;;;;;;;;4993162;28;20049;-91
2024/01/27 07:39:24;;;;;;;3.65;1.52;;;;;;;;;;4993196;28;20026;-91
2024/01/27 07:41:51;;;;;;;2.35;1.23;;;;;;;;;;5007777;28;20030;-92
2024/01/27 07:44:28;;;;;;;2.75;1.10;;;;;;;;;;4994025;28;20037;-93
2024/01/27 07:47:14;;;;;;;3.13;1.23;;;;;;;;;;4995589;28;20109;-92
2024/01/27 07:56:00;;;;;;;4.32;1.42;;;;;;;;;;4993279;28;20038;-92
2024/01/27 07:58:28;;;;;;;2.55;1.08;;;;;;;;;;5010220;28;20468;-92
2024/01/27 08:01:03;;;;;;;5.95;1.80;;;;;;;;;;4993787;28;20105;-94
2024/01/27 08:03:30;;;;;;;5.40;1.42;;;;;;;;;;4993371;28;20049;-91
2024/01/27 08:05:56;;;;;;;4.90;1.35;;;;;;;;;;4992082;28;20034;-91
2024/01/27 08:08:21;;;;;;;5.53;1.50;;;;;;;;;;4993469;28;20500;-93
2024/01/27 08:10:46;;;;;;;3.50;1.50;;;;;;;;;;4992806;28;20477;-90
2024/01/27 08:13:22;;;;;;;1.75;1.45;;;;;;;;;;4976985;28;20034;-89
2024/01/27 08:15:47;;;;;;;2.17;1.38;;;;;;;;;;4977296;28;20184;-91
2024/01/27 08:18:16;;;;;;;4.10;1.80;;;;;;;;;;4990815;28;20077;-93
2024/01/27 08:20:53;;;;;;;2.40;1.38;;;;;;;;;;4992913;28;20034;-91
2024/01/27 08:23:28;;;;;;;4.20;1.50;;;;;;;;;;4988403;28;20038;-93
2024/01/27 08:25:53;;;;;;;3.67;1.52;;;;;;;;;;4977742;28;20027;-91
2024/01/27 08:28:25;;;;;;;3.40;1.05;;;;;;;;;;4976216;28;20025;-91
2024/01/27 08:30:50;;;;;;;2.42;1.20;;;;;;;;;;4976726;28;20042;-93
2024/01/27 08:33:17;;;;;;;4.20;1.50;;;;;;;;;;4976724;28;20050;-91
2024/01/27 08:35:43;;;;;;;4.00;1.48;;;;;;;;;;4979614;28;20042;-90
2024/01/27 08:38:12;;;;;;;5.22;2.20;;;;;;;;;;4978250;28;20030;-91
2024/01/27 08:40:59;;;;;;;2.00;1.10;;;;;;;;;;4995116;28;20030;-94
2024/01/27 08:43:27;;;;;;;3.53;1.33;;;;;;;;;;4975378;28;20058;-93
2024/01/27 08:46:00;;;;;;;3.97;1.60;;;;;;;;;;4991500;28;20037;-93
2024/01/27 08:48:51;;;;;;;;;;;;;;;;;;;;;
2024/01/27 08:51:51;;;;;;;6.68;1.90;;;;;;;;;;4991720;28;19909;-92
2024/01/27 08:54:22;;;;;;;2.67;1.42;;;;;;;;;;4993793;28;20043;-91
2024/01/27 08:56:50;;;;;;;4.07;1.75;;;;;;;;;;4994678;28;20022;-92
2024/01/27 08:59:17;;;;;;;3.85;1.40;;;;;;;;;;4978151;28;20026;-92
2024/01/27 09:01:42;;;;;;;3.47;1.15;;;;;;;;;;4977255;28;20045;-93
2024/01/27 09:04:10;;;;;;;4.70;1.67;;;;;;;;;;4978146;28;20045;-94
2024/01/27 09:06:38;;;;;;;;;;;;;;;;;;5011154;28;20030;-93
2024/01/27 09:09:07;;;;;;;6.60;2.30;;;;;;;;;;4994205;28;20272;-93
2024/01/27 09:11:34;;;;;;;2.60;1.63;;;;;;;;;;4978042;28;20406;-89
2024/01/27 09:14:04;;;;;;;2.88;1.80;;;;;;;;;;4978037;28;20030;-92
2024/01/27 09:16:30;;;;;;;2.97;1.27;;;;;;;;;;4989057;28;20034;-92
2024/01/27 09:30:51;;;;;;;4.40;1.63;;;;;;;;;;4930193;29;20173;-94
2024/01/27 09:33:53;;;;;;;3.50;1.77;;;;;;;;;;4873100;29;20568;-93
2024/01/27 09:36:37;;;;;;;3.22;1.83;;;;;;;;;;4860892;29;20189;-94
2024/01/27 09:39:36;;;;;;;4.30;1.73;;;;;;;;;;4861955;29;20045;-94
2024/01/27 09:49:37;;;;;;;5.30;2.03;;;;;;;;;;4757335;30;20135;-95
2024/01/27 09:56:01;;;;;;;4.75;1.92;;;;;;;;;;4788651;30;20116;-95
2024/01/27 09:58:32;;;;;;;2.42;1.65;;;;;;;;;;4771918;30;20488;-95
2024/01/27 10:00:59;;;;;;;2.10;1.70;;;;;;;;;;4758777;30;20043;-93
2024/01/27 10:03:26;;;;;;;4.45;1.88;;;;;;;;;;4852172;29;20045;-92
2024/01/27 10:06:21;;;;;;;2.05;1.70;;;;;;;;;;4898628;29;20126;-91
2024/01/27 10:09:01;;;;;;;2.47;1.33;;;;;;;;;;4946312;28;20035;-92
2024/01/27 10:11:26;;;;;;;2.88;1.67;;;;;;;;;;4972258;28;20396;-93
2024/01/27 10:13:56;;;;;;;2.15;1.75;;;;;;;;;;4991223;28;20041;-93
2024/01/27 10:16:25;;;;;;;3.38;2.05;;;;;;;;;;4974156;28;20939;-93
2024/01/27 10:19:01;;;;;;;2.92;1.98;;;;;;;;;;5009734;28;20366;-92
2024/01/27 10:21:27;;;;;;;3.38;2.25;;;;;;;;;;4976938;28;20030;-91
2024/01/27 10:23:52;;;;;;;2.90;1.83;;;;;;;;;;4976756;28;20030;-91
2024/01/27 10:26:18;;;;;;;4.40;1.75;;;;;;;;;;4977255;28;20038;-92
2024/01/27 10:28:53;;;;;;;2.70;1.98;;;;;;;;;;4976536;28;20030;-92
2024/01/27 10:31:23;;;;;;;6.75;1.90;;;;;;;;;;4976219;28;20058;-92
2024/01/27 10:33:53;;;;;;;2.78;1.48;;;;;;;;;;4974846;28;20070;-91
2024/01/27 10:36:19;;;;;;;3.80;2.25;;;;;;;;;;4976798;28;20033;-92
2024/01/27 10:38:44;;;;;;;3.50;1.95;;;;;;;;;;4976532;28;20108;-93
2024/01/27 10:41:10;;;;;;;5.43;1.85;;;;;;;;;;4975558;28;20023;-92
2024/01/27 10:43:36;;;;;;;4.18;2.40;;;;;;;;;;4975793;28;20053;-91
2024/01/27 10:46:04;;;;;;;3.90;2.25;;;;;;;;;;4975813;28;20045;-92
2024/01/27 10:48:30;;;;;;;6.18;2.33;;;;;;;;;;4991716;28;20030;-92
2024/01/27 10:50:56;;;;;;;6.20;2.22;;;;;;;;;;4973034;28;20104;-92
2024/01/27 10:53:47;;;;;;;2.72;1.92;;;;;;;;;;5005135;28;20085;-93
2024/01/27 10:56:13;;;;;;;4.28;2.08;;;;;;;;;;4987805;28;20140;-91
2024/01/27 10:58:46;;;;;;;3.22;1.92;;;;;;;;;;4976255;28;20057;-92
2024/01/27 11:08:37;;;;;;;4.72;2.33;;;;;;;;;;5021210;23;20061;-57
2024/01/27 11:11:02;;;;;;;4.28;2.22;;;;;;;;;;5010273;28;20478;-57
2024/01/27 11:13:29;;;;;;;9.48;3.95;;;;;;;;;;5010337;28;20030;-59
2024/01/27 11:15:58;;;;;;;4.63;2.50;;;;;;;;;;5010140;28;20506;-57
2024/01/27 11:18:24;;;;;;;8.48;2.85;;;;;;;;;;5011137;28;20418;-55
2024/01/27 11:20:52;;;;;;;3.85;1.88;;;;;;;;;;5010856;28;20429;-56
2024/01/27 11:23:18;;;;;;;4.05;2.08;;;;;;;;;;5010154;28;20037;-56
2024/01/27 11:25:43;;;;;;;5.90;2.88;;;;;;;;;;5010398;28;20037;-55
2024/01/27 11:28:20;;;;;;;4.80;2.63;;;;;;;;;;5010688;28;20060;-54
2024/01/27 11:30:46;;;;;;;5.40;2.63;;;;;;;;;;5009115;28;20076;-54
2024/01/27 11:33:12;;;;;;;5.95;3.08;;;;;;;;;;5010600;28;20113;-54
2024/01/27 11:35:37;;;;;;;5.70;3.30;;;;;;;;;;5010600;28;20145;-55
2024/01/27 11:38:04;;;;;;;6.47;3.40;;;;;;;;;;5010656;28;20018;-57
2024/01/27 11:40:29;;;;;;;6.00;2.80;;;;;;;;;;5010637;28;20030;-56
2024/01/27 11:42:56;;;;;;;5.18;2.85;;;;;;;;;;5009889;28;20068;-57
2024/01/27 11:45:22;;;;;;;4.93;2.97;;;;;;;;;;5010017;28;20477;-57
2024/01/27 11:47:47;;;;;;;5.68;3.00;;;;;;;;;;5010196;28;20076;-58
2024/01/27 11:50:12;;;;;;;4.18;2.60;;;;;;;;;;5010777;28;20065;-56
2024/01/27 11:52:38;;;;;;;6.15;2.80;;;;;;;;;;5010857;28;20068;-56
2024/01/27 11:55:03;;;;;;;4.20;2.30;;;;;;;;;;5010947;28;20033;-57
2024/01/27 11:57:29;;;;;;;4.70;2.65;;;;;;;;;;5013599;28;20080;-56
2024/01/27 11:59:55;;;;;;;2.80;2.22;;;;;;;;;;5015291;28;20033;-54
2024/01/27 12:02:21;;;;;;;4.93;2.40;;;;;;;;;;5014994;28;20033;-58
2024/01/27 12:04:47;;;;;;;4.20;2.55;;;;;;;;;;5014505;28;20116;-57
2024/01/27 12:07:12;;;;;;;3.75;2.00;;;;;;;;;;5013124;28;20056;-54
2024/01/27 12:09:38;;;;;;;8.10;2.90;;;;;;;;;;5014713;28;20038;-54
2024/01/27 12:12:04;;;;;;;3.05;2.33;;;;;;;;;;5014650;28;20110;-54
2024/01/27 12:14:46;;;;;;;3.55;2.35;;;;;;;;;;5014248;28;20116;-54
2024/01/27 12:17:11;;;;;;;4.72;2.20;;;;;;;;;;5014400;28;20029;-55
2024/01/27 12:19:37;;;;;;;4.13;2.47;;;;;;;;;;5013952;28;20038;-54
2024/01/27 12:22:04;;;;;;;4.15;2.28;;;;;;;;;;5013975;28;20030;-54
2024/01/27 12:24:32;;;;;;;3.95;2.38;;;;;;;;;;5013969;28;20476;-54
2024/01/27 12:26:59;;;;;;;3.88;2.80;;;;;;;;;;5013556;28;20041;-54
2024/01/27 12:29:24;;;;;;;3.08;2.40;;;;;;;;;;5017397;28;20026;-56
2024/01/27 12:31:50;;;;;;;4.60;2.20;;;;;;;;;;5016979;28;20100;-56
2024/01/27 12:34:18;;;;;;;3.08;1.92;;;;;;;;;;5016915;28;20014;-56
2024/01/27 12:36:46;;;;;;;3.58;1.70;;;;;;;;;;5015442;28;20117;-57
2024/01/27 12:39:12;;;;;;;5.15;3.55;;;;;;;;;;5017175;28;20038;-57
2024/01/27 12:41:37;;;;;;;4.85;2.60;;;;;;;;;;5016849;28;20041;-57
2024/01/27 12:44:03;;;;;;;3.85;2.20;;;;;;;;;;5015330;28;20105;-57
2024/01/27 12:46:29;;;;;;;2.13;1.90;;;;;;;;;;5015561;28;20074;-57
2024/01/27 12:48:54;;;;;;;5.07;2.25;;;;;;;;;;5016366;28;20077;-57
2024/01/27 12:51:19;;;;;;;3.25;2.10;;;;;;;;;;5015765;28;20029;-57
2024/01/27 12:53:45;;;;;;;2.70;1.90;;;;;;;;;;5016301;28;20033;-56
2024/01/27 12:56:11;;;;;;;4.45;2.30;;;;;;;;;;5016770;28;20116;-56
2024/01/27 12:58:37;;;;;;;4.07;2.50;;;;;;;;;;5016469;28;20036;-56
2024/01/27 13:01:02;;;;;;;2.92;2.03;;;;;;;;;;5014980;28;20462;-56
2024/01/27 13:03:28;;;;;;;3.42;2.60;;;;;;;;;;5012755;28;20124;-57
2024/01/27 13:05:54;;;;;;;3.90;2.70;;;;;;;;;;5015050;28;20105;-56
2024/01/27 13:08:20;;;;;;;4.00;2.45;;;;;;;;;;5013806;28;20448;-57
2024/01/27 13:10:46;;;;;;;3.25;2.42;;;;;;;;;;5012856;28;20056;-56
2024/01/27 13:13:11;;;;;;;4.10;2.65;;;;;;;;;;5011596;28;20073;-56
2024/01/27 13:15:36;;;;;;;4.88;2.63;;;;;;;;;;5012077;28;20037;-56
2024/01/27 13:18:02;;;;;;;3.47;2.15;;;;;;;;;;5012105;28;20044;-57
2024/01/27 13:20:31;;;;;;;4.30;2.42;;;;;;;;;;5012304;28;20030;-56
2024/01/27 13:22:59;;;;;;;2.60;2.15;;;;;;;;;;5014295;28;20417;-56
2024/01/27 13:25:25;;;;;;;3.40;2.50;;;;;;;;;;5014298;28;20042;-56
2024/01/27 13:27:50;;;;;;;5.32;3.00;;;;;;;;;;5014921;28;20096;-56
2024/01/27 13:30:19;;;;;;;5.50;2.28;;;;;;;;;;5014728;28;20462;-56
2024/01/27 13:32:45;;;;;;;7.45;3.92;;;;;;;;;;5014504;28;20113;-57
2024/01/27 13:35:10;;;;;;;2.53;1.95;;;;;;;;;;5014349;28;20113;-57
2024/01/27 13:37:37;;;;;;;3.60;2.05;;;;;;;;;;5029630;23;20100;-66
2024/01/27 13:40:09;;;;;;;4.00;2.30;;;;;;;;;;5036124;23;20029;-57
2024/01/27 13:42:35;;;;;;;5.13;3.35;;;;;;;;;;5047560;23;20058;-65
2024/01/27 13:45:00;;;;;;;2.47;2.25;;;;;;;;;;5015839;28;20048;-65
2024/01/27 13:47:26;;;;;;;2.20;2.00;;;;;;;;;;5015317;28;20026;-65
2024/01/27 13:49:51;;;;;;;2.85;1.40;;;;;;;;;;5014354;28;20462;-65
2024/01/27 13:52:17;;;;;;;2.28;1.83;;;;;;;;;;5014622;28;20034;-65
2024/01/27 13:54:42;;;;;;;2.25;1.67;;;;;;;;;;5015470;28;20044;-65
2024/01/27 13:57:10;;;;;;;2.30;1.60;;;;;;;;;;5015143;28;20061;-65
2024/01/27 13:59:35;;;;;;;1.80;1.70;;;;;;;;;;5015341;28;20108;-65
2024/01/27 14:02:00;;;;;;;2.10;1.90;;;;;;;;;;5015300;28;20530;-65
2024/01/27 14:04:26;;;;;;;3.83;1.80;;;;;;;;;;5014479;28;20038;-65
2024/01/27 14:06:55;;;;;;;1.90;1.70;;;;;;;;;;5015247;28;20049;-65
2024/01/27 14:09:21;;;;;;;2.90;2.13;;;;;;;;;;5015153;28;20018;-65
2024/01/27 14:11:46;;;;;;;2.28;1.80;;;;;;;;;;5014861;28;20044;-65
2024/01/27 14:14:12;;;;;;;1.85;1.75;;;;;;;;;;5015092;28;20029;-65
2024/01/27 14:16:37;;;;;;;2.30;2.10;;;;;;;;;;4997338;28;20033;-66
2024/01/27 14:19:02;;;;;;;4.45;2.80;;;;;;;;;;5014997;28;20037;-66
2024/01/27 14:21:28;;;;;;;2.95;1.92;;;;;;;;;;5014038;28;20022;-65
2024/01/27 14:24:00;;;;;;;4.20;2.08;;;;;;;;;;5014559;28;20054;-66
2024/01/27 14:26:28;;;;;;;2.80;2.08;;;;;;;;;;5014754;28;20063;-67
2024/01/27 14:28:53;;;;;;;3.30;2.10;;;;;;;;;;5015089;28;20097;-66
2024/01/27 14:31:19;;;;;;;1.92;1.67;;;;;;;;;;5014807;28;20164;-66
2024/01/27 14:33:44;;;;;;;2.00;1.80;;;;;;;;;;5014480;28;20436;-66
2024/01/27 14:36:11;;;;;;;2.92;2.13;;;;;;;;;;5029643;28;20619;-65
2024/01/27 14:38:36;;;;;;;2.80;2.13;;;;;;;;;;5014942;28;20026;-66
2024/01/27 14:41:02;;;;;;;2.78;2.25;;;;;;;;;;5014340;28;20036;-66
2024/01/27 14:43:27;;;;;;;3.67;2.50;;;;;;;;;;5014100;28;20042;-66
2024/01/27 14:45:53;;;;;;;3.30;2.35;;;;;;;;;;5014262;28;20105;-66
2024/01/27 14:48:19;;;;;;;2.78;2.17;;;;;;;;;;5014524;28;20096;-67
2024/01/27 14:50:47;;;;;;;4.47;2.47;;;;;;;;;;5014461;28;20454;-65
2024/01/27 14:53:14;;;;;;;3.55;2.50;;;;;;;;;;5014205;28;20519;-66
2024/01/27 14:55:40;;;;;;;2.90;2.08;;;;;;;;;;5014134;28;20536;-66
2024/01/27 14:58:05;;;;;;;3.72;2.88;;;;;;;;;;5014379;28;20018;-66
2024/01/27 15:00:30;;;;;;;3.53;2.65;;;;;;;;;;5014001;28;20022;-66
2024/01/27 15:02:56;;;;;;;5.80;3.83;;;;;;;;;;5014044;28;20022;-66
2024/01/27 15:05:21;;;;;;;4.32;3.05;;;;;;;;;;5013938;28;20113;-66
2024/01/27 15:07:46;;;;;;;3.55;2.38;;;;;;;;;;5014258;28;20084;-66
2024/01/27 15:10:12;;;;;;;6.43;2.83;;;;;;;;;;5013955;28;20033;-66
2024/01/27 15:12:38;;;;;;;4.38;2.90;;;;;;;;;;5014473;28;20069;-66
2024/01/27 15:15:03;;;;;;;7.22;3.45;;;;;;;;;;5013906;28;20038;-67
2024/01/27 15:17:29;;;;;;;4.95;2.83;;;;;;;;;;5014173;28;20527;-66
2024/01/27 15:19:55;;;;;;;4.38;3.03;;;;;;;;;;5014132;28;20108;-66